Time;durP1;ratioP1;P1;durP2;ratioP2;P2;SDS_P1;SDS_P2;PMS_P1;PMS_P2;Temp;Humidity;BMP_temperature;BMP_pressure;BME280_temperature;BME280_humidity;BME280_pressure;Samples;Min_cycle;Max_cycle;Signal;HPM_P1;HPM_P2
2023/10/04 00:02:54;;;;;;;4.53;1.90;;;;;;;;;;10405455;28;20362;-80
2023/10/04 00:07:55;;;;;;;2.00;1.90;;;;;;;;;;10398160;28;20226;-79
2023/10/04 00:12:56;;;;;;;1.73;1.60;;;;;;;;;;10403444;28;20731;-80
2023/10/04 00:17:57;;;;;;;2.97;2.00;;;;;;;;;;10407149;28;20265;-80
2023/10/04 00:22:58;;;;;;;2.42;2.15;;;;;;;;;;10413919;28;20226;-79
2023/10/04 00:28:00;;;;;;;2.45;2.22;;;;;;;;;;10412924;28;20245;-80
2023/10/04 00:33:06;;;;;;;4.60;3.10;;;;;;;;;;10425056;28;20219;-80
2023/10/04 00:38:09;;;;;;;2.65;2.45;;;;;;;;;;10386144;28;20231;-80
2023/10/04 00:43:13;;;;;;;3.47;2.85;;;;;;;;;;10416813;28;20215;-80
2023/10/04 00:48:23;;;;;;;3.38;3.08;;;;;;;;;;10403683;28;20243;-80
2023/10/04 00:53:26;;;;;;;3.65;3.30;;;;;;;;;;10381836;28;20223;-80
2023/10/04 00:58:28;;;;;;;4.30;3.17;;;;;;;;;;10400930;28;20720;-80
2023/10/04 01:03:30;;;;;;;3.28;2.97;;;;;;;;;;10384000;28;20298;-79
2023/10/04 01:08:33;;;;;;;5.80;3.03;;;;;;;;;;10411200;28;20227;-80
2023/10/04 01:13:34;;;;;;;3.03;2.88;;;;;;;;;;10389595;28;20215;-79
2023/10/04 01:18:36;;;;;;;3.80;3.53;;;;;;;;;;10414622;28;20276;-80
2023/10/04 01:23:40;;;;;;;3.08;2.38;;;;;;;;;;10395606;28;20210;-80
2023/10/04 01:28:41;;;;;;;5.43;2.80;;;;;;;;;;10409061;28;20231;-79
2023/10/04 01:33:42;;;;;;;4.40;2.88;;;;;;;;;;10376741;28;20222;-79
2023/10/04 01:38:44;;;;;;;5.28;3.22;;;;;;;;;;10403675;28;20700;-80
2023/10/04 01:43:45;;;;;;;2.67;2.47;;;;;;;;;;10407004;28;20218;-79
2023/10/04 01:48:48;;;;;;;4.97;2.47;;;;;;;;;;10280107;28;20226;-78
2023/10/04 01:53:51;;;;;;;3.25;2.20;;;;;;;;;;9794871;28;21277;-75
2023/10/04 01:58:53;;;;;;;2.22;2.13;;;;;;;;;;9799373;28;21432;-77
2023/10/04 02:03:54;;;;;;;1.65;1.55;;;;;;;;;;9799329;28;20215;-76
2023/10/04 02:08:56;;;;;;;3.42;1.80;;;;;;;;;;9813663;28;20250;-76
2023/10/04 02:13:57;;;;;;;2.15;1.75;;;;;;;;;;9785685;28;20234;-77
2023/10/04 02:18:59;;;;;;;6.00;1.73;;;;;;;;;;9780597;28;20221;-78
2023/10/04 02:24:05;;;;;;;3.05;1.48;;;;;;;;;;9818661;28;20230;-76
2023/10/04 02:29:09;;;;;;;2.72;1.67;;;;;;;;;;9814905;28;21706;-77
2023/10/04 02:34:12;;;;;;;2.78;1.48;;;;;;;;;;9792987;28;20223;-76
2023/10/04 02:39:13;;;;;;;3.45;1.83;;;;;;;;;;9788705;28;20257;-78
2023/10/04 02:44:15;;;;;;;1.30;1.20;;;;;;;;;;9786306;28;20215;-77
2023/10/04 02:49:16;;;;;;;2.20;1.55;;;;;;;;;;9778540;28;20357;-76
2023/10/04 02:54:17;;;;;;;2.83;1.45;;;;;;;;;;9805312;28;21881;-78
2023/10/04 02:59:19;;;;;;;1.00;1.00;;;;;;;;;;9805667;28;20428;-78
2023/10/04 03:04:22;;;;;;;1.10;1.00;;;;;;;;;;9801100;28;20297;-77
2023/10/04 03:09:24;;;;;;;1.10;1.10;;;;;;;;;;9804968;28;20219;-76
2023/10/04 03:14:26;;;;;;;2.95;1.00;;;;;;;;;;9802680;28;21729;-77
2023/10/04 03:19:27;;;;;;;2.05;0.70;;;;;;;;;;9799320;28;20222;-77
2023/10/04 03:24:28;;;;;;;3.63;1.10;;;;;;;;;;9815806;28;20243;-76
2023/10/04 03:29:30;;;;;;;2.65;1.17;;;;;;;;;;9758785;28;20223;-77
2023/10/04 03:34:31;;;;;;;2.85;1.40;;;;;;;;;;10185483;28;20224;-81
2023/10/04 03:39:32;;;;;;;2.35;0.98;;;;;;;;;;10320808;28;20638;-81
2023/10/04 03:44:35;;;;;;;3.50;1.10;;;;;;;;;;10327308;28;20215;-81
2023/10/04 03:49:37;;;;;;;5.57;1.58;;;;;;;;;;10350890;28;20211;-80
2023/10/04 03:54:38;;;;;;;2.33;0.95;;;;;;;;;;10353567;28;20220;-81
2023/10/04 03:59:40;;;;;;;1.38;1.10;;;;;;;;;;10322488;28;20242;-80
2023/10/04 04:04:42;;;;;;;1.30;1.20;;;;;;;;;;10326007;28;20810;-81
2023/10/04 04:09:44;;;;;;;0.85;0.85;;;;;;;;;;10323120;28;20319;-81
2023/10/04 04:14:46;;;;;;;8.25;1.40;;;;;;;;;;10314644;28;20218;-81
2023/10/04 04:19:48;;;;;;;1.05;1.05;;;;;;;;;;10325262;28;20254;-81
2023/10/04 04:24:49;;;;;;;1.05;1.05;;;;;;;;;;10327323;28;20315;-81
2023/10/04 04:29:56;;;;;;;1.40;0.98;;;;;;;;;;10375033;28;20234;-81
2023/10/04 04:34:57;;;;;;;1.27;1.10;;;;;;;;;;10390776;28;20242;-81
2023/10/04 04:40:00;;;;;;;2.38;1.05;;;;;;;;;;10360342;28;20627;-81
2023/10/04 04:45:08;;;;;;;5.93;1.27;;;;;;;;;;10385206;28;20221;-81
2023/10/04 04:50:10;;;;;;;2.63;1.45;;;;;;;;;;10365083;28;20382;-79
2023/10/04 04:55:11;;;;;;;4.57;1.30;;;;;;;;;;10372115;28;20222;-81
2023/10/04 05:00:31;;;;;;;0.85;0.85;;;;;;;;;;10396520;28;20183;-81
2023/10/04 05:05:33;;;;;;;1.65;1.02;;;;;;;;;;10390857;28;20250;-81
2023/10/04 05:10:38;;;;;;;1.80;1.10;;;;;;;;;;10354894;28;20214;-81
2023/10/04 05:15:42;;;;;;;1.00;0.82;;;;;;;;;;10387826;28;20317;-80
2023/10/04 05:21:05;;;;;;;1.13;1.02;;;;;;;;;;10364350;28;20211;-80
2023/10/04 05:26:08;;;;;;;2.25;1.20;;;;;;;;;;10363808;28;20679;-79
2023/10/04 05:31:10;;;;;;;6.10;1.40;;;;;;;;;;10294271;28;22031;-75
2023/10/04 05:36:11;;;;;;;1.50;1.40;;;;;;;;;;9787640;28;20223;-76
2023/10/04 05:41:12;;;;;;;2.60;1.30;;;;;;;;;;9799053;28;21699;-76
2023/10/04 05:46:14;;;;;;;1.58;1.00;;;;;;;;;;9773626;28;20326;-77
2023/10/04 05:51:17;;;;;;;2.05;1.30;;;;;;;;;;9851950;28;20226;-76
2023/10/04 05:56:20;;;;;;;1.58;1.25;;;;;;;;;;9862137;28;21727;-77
2023/10/04 06:01:22;;;;;;;2.90;1.15;;;;;;;;;;9821144;28;22563;-77
2023/10/04 06:06:23;;;;;;;0.80;0.80;;;;;;;;;;9829617;28;20223;-77
2023/10/04 06:11:24;;;;;;;2.30;0.90;;;;;;;;;;9830105;28;20622;-78
2023/10/04 06:16:26;;;;;;;1.17;1.10;;;;;;;;;;9859544;28;20386;-78
2023/10/04 06:21:27;;;;;;;1.98;1.25;;;;;;;;;;9839398;28;20301;-76
2023/10/04 06:26:28;;;;;;;4.57;1.42;;;;;;;;;;9871284;28;21747;-77
2023/10/04 06:31:29;;;;;;;1.15;1.13;;;;;;;;;;9825674;28;20254;-77
2023/10/04 06:36:30;;;;;;;2.90;1.63;;;;;;;;;;9812746;28;20229;-75
2023/10/04 06:41:32;;;;;;;3.50;1.50;;;;;;;;;;9790880;28;20223;-77
2023/10/04 06:46:33;;;;;;;2.17;1.92;;;;;;;;;;9770655;28;20223;-77
2023/10/04 06:51:34;;;;;;;3.10;1.90;;;;;;;;;;9801292;28;21881;-76
2023/10/04 06:56:36;;;;;;;2.88;1.70;;;;;;;;;;9816833;28;20300;-76
2023/10/04 07:01:37;;;;;;;1.92;1.70;;;;;;;;;;9773586;28;21663;-76
2023/10/04 07:06:39;;;;;;;3.65;1.80;;;;;;;;;;9807451;28;20320;-76
2023/10/04 07:11:40;;;;;;;2.20;1.92;;;;;;;;;;9786020;28;22589;-78
2023/10/04 07:16:41;;;;;;;3.92;2.00;;;;;;;;;;9791796;28;20226;-77
2023/10/04 07:21:42;;;;;;;4.13;2.17;;;;;;;;;;9805585;28;21208;-76
2023/10/04 07:26:45;;;;;;;2.20;2.10;;;;;;;;;;9793935;28;20265;-77
2023/10/04 07:31:48;;;;;;;7.30;2.10;;;;;;;;;;10354611;28;20279;-79
2023/10/04 07:36:49;;;;;;;3.25;2.00;;;;;;;;;;10385818;28;20247;-79
2023/10/04 07:41:50;;;;;;;2.22;2.08;;;;;;;;;;10404361;28;20306;-79
2023/10/04 07:46:51;;;;;;;4.43;2.15;;;;;;;;;;10381318;28;20223;-80
2023/10/04 07:51:52;;;;;;;1.67;1.60;;;;;;;;;;10385293;28;20246;-79
2023/10/04 07:56:53;;;;;;;2.40;2.22;;;;;;;;;;10383565;28;20227;-79
2023/10/04 08:01:56;;;;;;;3.10;2.03;;;;;;;;;;10401884;28;20301;-80
2023/10/04 08:06:58;;;;;;;4.95;1.38;;;;;;;;;;10388133;28;20214;-79
2023/10/04 08:11:59;;;;;;;5.50;2.10;;;;;;;;;;10386625;28;20215;-80
2023/10/04 08:17:01;;;;;;;3.33;2.00;;;;;;;;;;10380060;28;20747;-79
2023/10/04 08:22:03;;;;;;;1.75;1.65;;;;;;;;;;10378426;28;20798;-78
2023/10/04 08:27:04;;;;;;;8.45;1.88;;;;;;;;;;10382456;28;20716;-77
2023/10/04 08:32:05;;;;;;;3.95;1.60;;;;;;;;;;10397115;28;20619;-79
2023/10/04 08:37:07;;;;;;;4.57;1.50;;;;;;;;;;10363156;28;20226;-79
2023/10/04 08:42:08;;;;;;;2.95;1.45;;;;;;;;;;10368235;28;20215;-78
2023/10/04 08:47:10;;;;;;;3.33;1.55;;;;;;;;;;10350347;28;20890;-79
2023/10/04 08:52:20;;;;;;;3.67;1.70;;;;;;;;;;10345505;28;20825;-78
2023/10/04 08:57:22;;;;;;;3.50;1.85;;;;;;;;;;10372915;28;20231;-78
2023/10/04 09:02:23;;;;;;;6.07;1.65;;;;;;;;;;10375916;28;20227;-80
2023/10/04 09:07:25;;;;;;;3.28;1.50;;;;;;;;;;10386675;28;20216;-79
2023/10/04 09:12:26;;;;;;;1.25;1.10;;;;;;;;;;10406220;28;20235;-78
2023/10/04 09:17:27;;;;;;;1.35;1.25;;;;;;;;;;10385827;28;20732;-79
2023/10/04 09:22:32;;;;;;;1.08;1.08;;;;;;;;;;10396227;28;20835;-79
2023/10/04 09:27:33;;;;;;;9.45;1.35;;;;;;;;;;10387058;28;20223;-79
2023/10/04 09:32:38;;;;;;;2.90;1.40;;;;;;;;;;10378122;28;20211;-79
2023/10/04 09:37:44;;;;;;;2.58;1.70;;;;;;;;;;10039943;28;20235;-78
2023/10/04 09:42:52;;;;;;;1.95;1.20;;;;;;;;;;9688147;28;20788;-77
2023/10/04 09:47:54;;;;;;;5.80;1.23;;;;;;;;;;9668604;28;21694;-75
2023/10/04 09:52:55;;;;;;;1.23;1.23;;;;;;;;;;9734278;28;20219;-75
2023/10/04 09:57:57;;;;;;;2.15;1.45;;;;;;;;;;9784033;28;22161;-74
2023/10/04 10:02:58;;;;;;;1.40;1.17;;;;;;;;;;9732303;28;21885;-77
2023/10/04 10:08:05;;;;;;;5.47;1.38;;;;;;;;;;9710821;28;21617;-77
2023/10/04 10:13:07;;;;;;;2.17;1.40;;;;;;;;;;9761982;28;21654;-76
2023/10/04 10:18:09;;;;;;;2.22;0.95;;;;;;;;;;9690471;28;20231;-76
2023/10/04 10:23:13;;;;;;;1.50;1.40;;;;;;;;;;9693280;28;20228;-79
2023/10/04 10:28:23;;;;;;;1.60;1.50;;;;;;;;;;9697207;28;21915;-76
2023/10/04 10:33:25;;;;;;;1.50;1.45;;;;;;;;;;9691011;28;20336;-74
2023/10/04 10:38:43;;;;;;;3.85;1.50;;;;;;;;;;9715316;28;21675;-74
2023/10/04 10:44:03;;;;;;;1.77;1.52;;;;;;;;;;9693454;28;21993;-73
2023/10/04 10:49:04;;;;;;;1.63;1.58;;;;;;;;;;9689323;28;21642;-74
2023/10/04 10:54:07;;;;;;;3.92;1.80;;;;;;;;;;9720396;28;20222;-74
2023/10/04 10:59:08;;;;;;;2.63;1.55;;;;;;;;;;9668849;28;21497;-74
2023/10/04 11:04:09;;;;;;;2.00;1.40;;;;;;;;;;9708451;28;21702;-75
2023/10/04 11:09:11;;;;;;;2.67;1.02;;;;;;;;;;9711369;28;22530;-74
2023/10/04 11:14:16;;;;;;;4.32;1.20;;;;;;;;;;9696321;28;21736;-74
2023/10/04 11:19:17;;;;;;;3.92;1.30;;;;;;;;;;9699702;28;20216;-74
2023/10/04 11:24:18;;;;;;;1.58;1.38;;;;;;;;;;9893095;28;20202;-77
2023/10/04 11:29:19;;;;;;;2.10;1.20;;;;;;;;;;10396929;28;20214;-79
2023/10/04 11:34:20;;;;;;;2.80;1.10;;;;;;;;;;10397267;28;20211;-79
2023/10/04 11:39:22;;;;;;;4.15;1.50;;;;;;;;;;10362095;28;20760;-76
2023/10/04 11:44:23;;;;;;;2.17;1.25;;;;;;;;;;10370767;28;21463;-76
2023/10/04 11:49:24;;;;;;;3.25;1.50;;;;;;;;;;10394203;28;20211;-77
2023/10/04 11:54:36;;;;;;;1.58;1.45;;;;;;;;;;10399734;28;21154;-78
2023/10/04 11:59:39;;;;;;;1.35;1.25;;;;;;;;;;10383365;28;21226;-78
2023/10/04 12:04:40;;;;;;;2.75;1.35;;;;;;;;;;10386088;28;20223;-78
2023/10/04 12:09:41;;;;;;;2.53;0.95;;;;;;;;;;10375938;28;20301;-77
2023/10/04 12:14:43;;;;;;;2.42;1.38;;;;;;;;;;10368982;28;20937;-77
2023/10/04 12:19:45;;;;;;;1.27;1.20;;;;;;;;;;10397934;28;20221;-78
2023/10/04 12:24:47;;;;;;;1.27;1.27;;;;;;;;;;10349019;28;20226;-78
2023/10/04 12:29:48;;;;;;;2.38;1.15;;;;;;;;;;10318656;28;20211;-77
2023/10/04 12:34:49;;;;;;;1.48;1.27;;;;;;;;;;10355022;28;20592;-79
2023/10/04 12:39:50;;;;;;;1.40;1.30;;;;;;;;;;10326399;28;20211;-78
2023/10/04 12:44:53;;;;;;;1.52;1.00;;;;;;;;;;10317866;28;20732;-78
2023/10/04 12:49:54;;;;;;;1.95;1.20;;;;;;;;;;10333697;28;20211;-77
2023/10/04 12:54:55;;;;;;;1.50;1.40;;;;;;;;;;10321265;28;20215;-77
2023/10/04 12:59:56;;;;;;;1.70;1.60;;;;;;;;;;10322143;28;20599;-78
2023/10/04 13:04:57;;;;;;;1.70;1.35;;;;;;;;;;10334541;28;20832;-77
2023/10/04 13:09:59;;;;;;;1.25;1.20;;;;;;;;;;10325359;28;20289;-78
2023/10/04 13:15:00;;;;;;;3.28;1.92;;;;;;;;;;10333500;28;20320;-77
2023/10/04 13:20:02;;;;;;;2.63;1.08;;;;;;;;;;10330906;28;20227;-78
2023/10/04 13:25:04;;;;;;;2.28;1.48;;;;;;;;;;10131210;28;21362;-77
2023/10/04 13:30:06;;;;;;;1.45;1.35;;;;;;;;;;9763231;28;20444;-77
2023/10/04 13:35:07;;;;;;;1.38;1.33;;;;;;;;;;9723153;28;21288;-75
2023/10/04 13:40:09;;;;;;;2.55;1.58;;;;;;;;;;9767353;28;21900;-75
2023/10/04 13:45:10;;;;;;;2.28;1.58;;;;;;;;;;9750244;28;20207;-76
2023/10/04 13:50:12;;;;;;;2.17;1.52;;;;;;;;;;9741637;28;20758;-75
2023/10/04 13:55:13;;;;;;;2.17;1.35;;;;;;;;;;9694976;28;20380;-75
2023/10/04 14:00:40;;;;;;;2.00;1.90;;;;;;;;;;9630421;28;21607;-74
2023/10/04 14:05:39;;;;;;;2.70;1.33;;;;;;;;;;9628026;28;21039;-74
2023/10/04 14:10:40;;;;;;;1.48;1.38;;;;;;;;;;9671686;28;20215;-74
2023/10/04 14:15:42;;;;;;;2.83;1.50;;;;;;;;;;9689080;28;21011;-75
2023/10/04 14:20:43;;;;;;;1.90;1.23;;;;;;;;;;9616529;28;20215;-75
2023/10/04 14:25:44;;;;;;;4.00;1.42;;;;;;;;;;9617012;28;20215;-75
2023/10/04 14:30:46;;;;;;;2.33;1.50;;;;;;;;;;9627462;28;20219;-76
2023/10/04 14:35:51;;;;;;;1.27;1.15;;;;;;;;;;9612969;28;21066;-73
2023/10/04 14:40:54;;;;;;;1.50;1.40;;;;;;;;;;9597973;28;20225;-76
2023/10/04 14:45:55;;;;;;;2.25;1.90;;;;;;;;;;9611234;28;20234;-76
2023/10/04 14:50:56;;;;;;;1.83;1.73;;;;;;;;;;9619518;28;21848;-75
2023/10/04 14:55:58;;;;;;;2.95;1.80;;;;;;;;;;9629133;28;20967;-75
2023/10/04 15:01:05;;;;;;;3.38;1.38;;;;;;;;;;9619393;28;20422;-77
2023/10/04 15:06:06;;;;;;;3.00;1.30;;;;;;;;;;9646009;28;20891;-77
2023/10/04 15:11:08;;;;;;;2.33;1.33;;;;;;;;;;9634098;28;21230;-78
2023/10/04 15:16:11;;;;;;;3.75;1.55;;;;;;;;;;9643097;28;21291;-77
2023/10/04 15:21:13;;;;;;;4.50;1.70;;;;;;;;;;10006253;28;20290;-79
2023/10/04 15:26:14;;;;;;;2.75;1.45;;;;;;;;;;10390586;28;20280;-78
2023/10/04 15:31:17;;;;;;;4.03;1.45;;;;;;;;;;10369710;28;20247;-78
2023/10/04 15:36:18;;;;;;;1.55;1.45;;;;;;;;;;10372100;28;20224;-82
2023/10/04 15:41:19;;;;;;;1.60;1.50;;;;;;;;;;10385959;28;20214;-80
2023/10/04 15:46:21;;;;;;;1.85;1.55;;;;;;;;;;10385401;28;20746;-77
2023/10/04 15:51:22;;;;;;;2.58;1.67;;;;;;;;;;10380872;28;20211;-77
2023/10/04 15:56:26;;;;;;;1.63;1.60;;;;;;;;;;10358360;28;20222;-77
2023/10/04 16:01:29;;;;;;;3.50;1.45;;;;;;;;;;10391596;28;20217;-77
2023/10/04 16:06:31;;;;;;;2.15;1.95;;;;;;;;;;10361694;28;20218;-77
2023/10/04 16:11:32;;;;;;;4.20;1.83;;;;;;;;;;10378950;28;20215;-76
2023/10/04 16:16:36;;;;;;;2.25;2.05;;;;;;;;;;10376625;28;20222;-77
2023/10/04 16:21:37;;;;;;;5.00;1.73;;;;;;;;;;10393309;28;20296;-78
2023/10/04 16:26:40;;;;;;;4.03;1.65;;;;;;;;;;10383178;28;20215;-77
2023/10/04 16:31:41;;;;;;;1.80;1.60;;;;;;;;;;10380051;28;20602;-77
2023/10/04 16:36:42;;;;;;;2.78;1.90;;;;;;;;;;10399569;28;20471;-79
2023/10/04 16:41:44;;;;;;;2.20;2.10;;;;;;;;;;10379122;28;20216;-77
2023/10/04 16:46:46;;;;;;;3.08;2.28;;;;;;;;;;10372653;28;20234;-77
2023/10/04 16:51:50;;;;;;;5.97;1.73;;;;;;;;;;10378552;28;20212;-78
2023/10/04 16:56:51;;;;;;;4.22;1.83;;;;;;;;;;10382237;28;20693;-77
2023/10/04 17:01:52;;;;;;;3.03;2.30;;;;;;;;;;10402625;28;20204;-76
2023/10/04 17:06:53;;;;;;;2.17;1.67;;;;;;;;;;10368215;28;20216;-77
2023/10/04 17:11:54;;;;;;;3.65;1.67;;;;;;;;;;10378028;28;20718;-77
2023/10/04 17:16:55;;;;;;;3.33;2.03;;;;;;;;;;10363730;28;20214;-76
2023/10/04 17:21:57;;;;;;;5.95;3.75;;;;;;;;;;10164538;28;22207;-76
2023/10/04 17:26:58;;;;;;;4.22;2.50;;;;;;;;;;9661089;28;20227;-76
2023/10/04 17:32:00;;;;;;;2.30;1.85;;;;;;;;;;9646304;28;21298;-76
2023/10/04 17:37:02;;;;;;;6.30;2.92;;;;;;;;;;9641397;28;20228;-75
2023/10/04 17:42:03;;;;;;;2.47;2.38;;;;;;;;;;9617091;28;22257;-76
2023/10/04 17:47:05;;;;;;;2.28;2.08;;;;;;;;;;9655441;28;20226;-76
2023/10/04 17:52:06;;;;;;;2.55;1.83;;;;;;;;;;9618649;28;20862;-77
2023/10/04 17:57:07;;;;;;;4.18;1.65;;;;;;;;;;9656027;28;21953;-76
2023/10/04 18:02:09;;;;;;;4.28;2.22;;;;;;;;;;9623372;28;20490;-76
2023/10/04 18:07:10;;;;;;;2.03;1.77;;;;;;;;;;9629310;28;21032;-78
2023/10/04 18:12:12;;;;;;;2.25;1.77;;;;;;;;;;9603787;28;20379;-76
2023/10/04 18:17:13;;;;;;;2.78;1.73;;;;;;;;;;9629209;28;21822;-77
2023/10/04 18:22:14;;;;;;;4.10;2.13;;;;;;;;;;9620321;28;20247;-78
2023/10/04 18:27:15;;;;;;;1.67;1.52;;;;;;;;;;9627038;28;21811;-77
2023/10/04 18:32:17;;;;;;;2.47;1.65;;;;;;;;;;9658222;28;20223;-79
2023/10/04 18:37:18;;;;;;;4.80;1.60;;;;;;;;;;9670027;28;20362;-80
2023/10/04 18:42:22;;;;;;;2.67;1.48;;;;;;;;;;9635475;28;21688;-80
2023/10/04 18:47:24;;;;;;;3.85;1.75;;;;;;;;;;9646217;28;21008;-79
2023/10/04 18:52:25;;;;;;;2.92;1.13;;;;;;;;;;9634505;28;20222;-78
2023/10/04 18:57:28;;;;;;;2.80;1.63;;;;;;;;;;9627836;28;21603;-78
2023/10/04 19:02:29;;;;;;;4.70;1.70;;;;;;;;;;9627481;28;20798;-77
2023/10/04 19:07:30;;;;;;;3.55;1.50;;;;;;;;;;9635570;28;22047;-77
2023/10/04 19:12:33;;;;;;;5.80;1.70;;;;;;;;;;9619303;28;21003;-79
2023/10/04 19:17:34;;;;;;;3.10;1.42;;;;;;;;;;10009096;28;20219;-77
2023/10/04 19:22:35;;;;;;;1.63;1.50;;;;;;;;;;10364757;28;20238;-77
2023/10/04 19:27:36;;;;;;;3.13;1.30;;;;;;;;;;10355899;28;20642;-78
2023/10/04 19:32:38;;;;;;;2.85;1.20;;;;;;;;;;10361623;28;20227;-78
2023/10/04 19:37:39;;;;;;;6.38;1.30;;;;;;;;;;10397038;28;20959;-81
2023/10/04 19:42:40;;;;;;;3.20;1.38;;;;;;;;;;10409265;28;20222;-81
2023/10/04 19:47:41;;;;;;;1.65;1.17;;;;;;;;;;10386167;28;20218;-79
2023/10/04 19:52:42;;;;;;;2.70;1.52;;;;;;;;;;10386321;28;20623;-79
2023/10/04 19:57:43;;;;;;;2.15;1.45;;;;;;;;;;10406464;28;20225;-79
2023/10/04 20:02:51;;;;;;;1.92;1.20;;;;;;;;;;10372807;28;20219;-80
2023/10/04 20:07:53;;;;;;;3.35;1.20;;;;;;;;;;10377385;28;20288;-80
2023/10/04 20:12:57;;;;;;;3.92;1.23;;;;;;;;;;10388803;28;20231;-80
2023/10/04 20:17:58;;;;;;;3.42;1.40;;;;;;;;;;10419189;28;20222;-82
2023/10/04 20:23:00;;;;;;;1.27;1.00;;;;;;;;;;10409533;28;20206;-78
2023/10/04 20:28:03;;;;;;;1.10;0.93;;;;;;;;;;10389165;28;20223;-79
2023/10/04 20:33:04;;;;;;;2.05;1.40;;;;;;;;;;10364551;28;20220;-77
2023/10/04 20:38:06;;;;;;;3.90;2.22;;;;;;;;;;10400936;28;20297;-78
2023/10/04 20:43:07;;;;;;;3.70;1.60;;;;;;;;;;10366371;28;20215;-79
2023/10/04 20:48:10;;;;;;;1.70;1.60;;;;;;;;;;10413134;28;20696;-77
2023/10/04 20:53:13;;;;;;;4.05;2.15;;;;;;;;;;10399678;28;20330;-80
2023/10/04 20:58:16;;;;;;;3.33;2.08;;;;;;;;;;10400533;28;20224;-81
2023/10/04 21:03:17;;;;;;;3.22;2.13;;;;;;;;;;10414405;28;20721;-81
2023/10/04 21:08:18;;;;;;;2.15;1.63;;;;;;;;;;10388821;28;20246;-80
2023/10/04 21:13:19;;;;;;;3.45;1.80;;;;;;;;;;10413996;28;20216;-78
2023/10/04 21:18:22;;;;;;;2.85;1.90;;;;;;;;;;10418004;28;20720;-79
2023/10/04 21:23:23;;;;;;;1.95;1.83;;;;;;;;;;10401362;28;20215;-79
2023/10/04 21:28:24;;;;;;;5.13;1.77;;;;;;;;;;10371455;28;20226;-79
2023/10/04 21:33:28;;;;;;;3.15;1.65;;;;;;;;;;10414146;28;20692;-80
2023/10/04 21:38:29;;;;;;;4.00;1.83;;;;;;;;;;10407777;28;20759;-80
2023/10/04 21:43:30;;;;;;;2.38;2.17;;;;;;;;;;10394350;28;20219;-80
2023/10/04 21:48:31;;;;;;;3.20;1.80;;;;;;;;;;10396866;28;20284;-81
2023/10/04 21:53:32;;;;;;;3.17;1.65;;;;;;;;;;10150700;28;20227;-79
2023/10/04 21:58:33;;;;;;;3.03;2.05;;;;;;;;;;9842875;28;21993;-79
2023/10/04 22:03:35;;;;;;;6.03;2.08;;;;;;;;;;9826065;28;22257;-78
2023/10/04 22:08:37;;;;;;;5.68;2.70;;;;;;;;;;9837471;28;20317;-77
2023/10/04 22:13:38;;;;;;;2.45;2.25;;;;;;;;;;9815007;28;20230;-76
2023/10/04 22:18:39;;;;;;;2.70;1.95;;;;;;;;;;9811349;28;22455;-76
2023/10/04 22:23:40;;;;;;;2.50;1.73;;;;;;;;;;9809608;28;20227;-77
2023/10/04 22:28:41;;;;;;;5.10;2.20;;;;;;;;;;9767291;28;1105210;-77
2023/10/04 22:33:42;;;;;;;5.38;2.30;;;;;;;;;;9740778;28;20653;-76
2023/10/04 22:38:43;;;;;;;4.60;2.75;;;;;;;;;;9684975;28;21828;-77
2023/10/04 22:43:44;;;;;;;2.30;1.90;;;;;;;;;;9703989;28;20215;-78
2023/10/04 22:48:46;;;;;;;2.78;2.25;;;;;;;;;;9683500;28;20227;-78
2023/10/04 22:53:47;;;;;;;2.42;2.33;;;;;;;;;;9708666;28;20348;-78
2023/10/04 22:58:48;;;;;;;5.80;2.60;;;;;;;;;;9693642;28;21666;-78
2023/10/04 23:03:52;;;;;;;4.72;2.42;;;;;;;;;;9692075;28;20223;-79
2023/10/04 23:08:53;;;;;;;3.05;2.20;;;;;;;;;;9725916;28;20230;-78
2023/10/04 23:13:55;;;;;;;3.00;2.05;;;;;;;;;;10089411;28;20219;-79
2023/10/04 23:19:10;;;;;;;4.88;1.80;;;;;;;;;;10372652;28;20226;-79
2023/10/04 23:24:14;;;;;;;2.20;2.00;;;;;;;;;;10391754;28;20298;-79
2023/10/04 23:29:15;;;;;;;4.57;1.85;;;;;;;;;;10389928;28;20231;-80
2023/10/04 23:34:17;;;;;;;3.05;1.60;;;;;;;;;;10388649;28;20219;-79
2023/10/04 23:39:28;;;;;;;5.05;1.83;;;;;;;;;;10403855;28;20309;-79
2023/10/04 23:44:30;;;;;;;1.55;1.50;;;;;;;;;;10412315;28;20222;-78
2023/10/04 23:49:32;;;;;;;2.33;2.13;;;;;;;;;;10397277;28;20226;-79
2023/10/04 23:54:36;;;;;;;3.08;1.77;;;;;;;;;;10372272;28;20715;-79
2023/10/04 23:59:37;;;;;;;1.73;1.35;;;;;;;;;;10389008;28;20309;-78
